Time;durP1;ratioP1;P1;durP2;ratioP2;P2;SDS_P1;SDS_P2;PMS_P1;PMS_P2;Temp;Humidity;BMP_temperature;BMP_pressure;BME280_temperature;BME280_humidity;BME280_pressure;Samples;Min_cycle;Max_cycle;Signal;HPM_P1;HPM_P2
2021/05/03 00:01:42;;;;;;;7.20;6.70;;;;;;;;;;4959151;28;20229;-88
2021/05/03 00:04:08;;;;;;;8.05;6.80;;;3.70;63.80;;;;;;4959566;28;20178;-89
2021/05/03 00:06:34;;;;;;;7.90;7.10;;;2.90;67.50;;;;;;4976679;28;20185;-90
2021/05/03 00:08:59;;;;;;;7.57;6.70;;;2.20;64.50;;;;;;4959015;28;20173;-90
2021/05/03 00:11:25;;;;;;;7.73;7.13;;;3.10;63.70;;;;;;4976785;28;20199;-89
2021/05/03 00:13:50;;;;;;;7.50;6.80;;;2.90;64.30;;;;;;4960702;28;20201;-88
2021/05/03 00:16:16;;;;;;;6.83;6.33;;;2.50;64.20;;;;;;4961165;28;20174;-89
2021/05/03 00:18:41;;;;;;;8.10;7.33;;;3.20;65.70;;;;;;4973974;28;20684;-89
2021/05/03 00:21:07;;;;;;;8.40;7.80;;;2.90;65.40;;;;;;4972257;28;20180;-89
2021/05/03 00:23:32;;;;;;;8.17;7.10;;;3.10;65.60;;;;;;4973161;28;20177;-88
2021/05/03 00:25:58;;;;;;;6.80;6.40;;;;;;;;;;4988487;28;20621;-89
2021/05/03 00:28:24;;;;;;;7.93;7.20;;;3.60;63.80;;;;;;4976191;28;20194;-89
2021/05/03 00:30:50;;;;;;;7.10;6.70;;;3.50;64.80;;;;;;4959159;28;20626;-88
2021/05/03 00:33:15;;;;;;;7.03;6.50;;;2.70;64.20;;;;;;4958405;28;20180;-88
2021/05/03 00:35:41;;;;;;;7.00;6.40;;;;;;;;;;4959007;28;20216;-88
2021/05/03 00:38:07;;;;;;;7.82;7.13;;;3.60;64.00;;;;;;4958171;28;20173;-88
2021/05/03 00:40:33;;;;;;;6.83;6.33;;;2.20;65.70;;;;;;4957796;28;20584;-88
2021/05/03 00:42:59;;;;;;;7.68;6.97;;;3.20;64.00;;;;;;4957629;28;20578;-88
2021/05/03 00:45:25;;;;;;;7.87;7.20;;;3.40;64.60;;;;;;4957874;28;20182;-89
2021/05/03 00:47:51;;;;;;;6.80;6.40;;;3.50;64.40;;;;;;4958236;28;20210;-87
2021/05/03 00:50:19;;;;;;;7.67;7.00;;;3.40;63.70;;;;;;4975170;28;20911;-89
2021/05/03 00:52:45;;;;;;;9.60;7.45;;;3.40;64.50;;;;;;4975123;28;20417;-88
2021/05/03 00:55:12;;;;;;;6.80;6.35;;;5.40;68.00;;;;;;4975702;28;20210;-88
2021/05/03 00:57:38;;;;;;;6.47;6.07;;;3.30;65.60;;;;;;4977922;28;20174;-88
2021/05/03 01:00:07;;;;;;;8.25;7.57;;;3.10;65.90;;;;;;4962361;28;20514;-88
2021/05/03 01:02:32;;;;;;;14.48;6.93;;;3.20;66.30;;;;;;4988020;28;20157;-89
2021/05/03 01:04:58;;;;;;;6.83;6.43;;;3.30;66.10;;;;;;4984937;28;20185;-88
2021/05/03 01:07:24;;;;;;;7.17;6.60;;;3.20;65.10;;;;;;4983957;28;20186;-88
2021/05/03 01:09:49;;;;;;;8.57;7.87;;;3.20;65.80;;;;;;4997979;28;20198;-88
2021/05/03 01:12:15;;;;;;;8.33;7.23;;;3.10;65.40;;;;;;4971277;28;20257;-87
2021/05/03 01:14:40;;;;;;;8.00;7.50;;;2.90;66.60;;;;;;4962491;28;20217;-88
2021/05/03 01:17:06;;;;;;;8.03;7.53;;;2.80;66.80;;;;;;4978550;28;20605;-88
2021/05/03 01:19:32;;;;;;;7.28;6.72;;;5.10;70.00;;;;;;4978636;28;20185;-89
2021/05/03 01:21:58;;;;;;;9.20;7.97;;;2.80;67.50;;;;;;4978519;28;20162;-89
2021/05/03 01:24:23;;;;;;;7.83;7.20;;;2.70;67.50;;;;;;4960770;28;20607;-89
2021/05/03 01:26:49;;;;;;;8.40;7.93;;;4.00;69.90;;;;;;4960969;28;20423;-89
2021/05/03 01:29:15;;;;;;;8.90;8.10;;;2.70;71.30;;;;;;4960773;28;20269;-89
2021/05/03 01:31:49;;;;;;;9.60;8.82;;;2.80;68.00;;;;;;4960478;28;20174;-88
2021/05/03 01:34:15;;;;;;;9.13;8.25;;;2.90;68.50;;;;;;4977571;28;20201;-88
2021/05/03 01:36:43;;;;;;;9.40;8.70;;;2.60;68.40;;;;;;4960192;28;20566;-88
2021/05/03 01:39:11;;;;;;;6.80;6.28;;;2.50;68.00;;;;;;4977600;28;20392;-88
2021/05/03 01:41:37;;;;;;;8.48;7.88;;;3.50;69.40;;;;;;4977568;28;20224;-88
2021/05/03 01:44:03;;;;;;;10.70;8.60;;;;;;;;;;4977787;28;20166;-89
2021/05/03 01:46:32;;;;;;;8.27;7.63;;;2.90;67.10;;;;;;4978243;28;20174;-88
2021/05/03 01:48:59;;;;;;;8.35;7.60;;;2.20;67.10;;;;;;4977409;28;20162;-88
2021/05/03 01:51:25;;;;;;;7.90;7.22;;;1.60;66.80;;;;;;4977537;28;20206;-88
2021/05/03 01:53:51;;;;;;;8.10;7.50;;;2.30;67.90;;;;;;4977606;28;20647;-88
2021/05/03 01:56:17;;;;;;;9.33;8.37;;;2.70;68.60;;;;;;4977563;28;20181;-88
2021/05/03 01:58:43;;;;;;;9.90;9.10;;;3.10;69.30;;;;;;4977175;28;20264;-89
2021/05/03 02:01:08;;;;;;;9.43;8.53;;;1.90;66.80;;;;;;4959878;28;20517;-89
2021/05/03 02:03:34;;;;;;;11.20;10.20;;;1.80;66.50;;;;;;4959881;28;20185;-88
2021/05/03 02:06:00;;;;;;;9.87;9.00;;;;;;;;;;4960566;28;20185;-88
2021/05/03 02:08:26;;;;;;;8.93;8.10;;;2.70;66.20;;;;;;4977211;28;20174;-88
2021/05/03 02:10:53;;;;;;;9.33;8.43;;;2.40;66.70;;;;;;4959906;28;20178;-88
2021/05/03 02:13:20;;;;;;;9.20;8.30;;;2.30;67.40;;;;;;4960671;28;20229;-88
2021/05/03 02:15:47;;;;;;;8.95;8.25;;;1.00;66.40;;;;;;4959459;28;20678;-88
2021/05/03 02:18:13;;;;;;;9.15;8.35;;;1.80;68.00;;;;;;4959551;28;20166;-88
2021/05/03 02:20:38;;;;;;;9.13;8.33;;;2.40;69.20;;;;;;4960709;28;20590;-88
2021/05/03 02:23:05;;;;;;;9.50;8.70;;;2.40;69.20;;;;;;4977582;28;20480;-88
2021/05/03 02:25:30;;;;;;;13.43;9.60;;;2.10;67.90;;;;;;4960431;28;20625;-88
2021/05/03 02:27:58;;;;;;;9.77;8.97;;;2.20;68.90;;;;;;4960921;28;20197;-88
2021/05/03 02:30:23;;;;;;;12.18;11.07;;;1.90;68.70;;;;;;4979569;28;20496;-88
2021/05/03 02:32:49;;;;;;;12.73;9.40;;;2.30;68.20;;;;;;4970840;28;20170;-88
2021/05/03 02:35:18;;;;;;;12.43;11.13;;;2.30;68.50;;;;;;4978545;28;20198;-87
2021/05/03 02:37:46;;;;;;;12.65;10.02;;;2.00;68.10;;;;;;4990621;28;20432;-88
2021/05/03 02:40:13;;;;;;;13.95;9.98;;;2.30;68.90;;;;;;4961058;28;20259;-88
2021/05/03 02:42:39;;;;;;;10.27;9.40;;;2.60;68.40;;;;;;4960157;28;20585;-88
2021/05/03 02:45:05;;;;;;;13.03;9.90;;;2.50;68.80;;;;;;4959248;28;20210;-89
2021/05/03 02:47:31;;;;;;;9.18;8.40;;;2.40;69.20;;;;;;4976836;28;20419;-89
2021/05/03 02:49:57;;;;;;;14.93;10.70;;;2.30;69.20;;;;;;4977370;28;20205;-89
2021/05/03 02:52:23;;;;;;;10.97;9.87;;;2.20;69.60;;;;;;4976729;28;20388;-88
2021/05/03 02:54:48;;;;;;;10.07;9.07;;;2.10;69.20;;;;;;4959541;28;20296;-88
2021/05/03 02:57:14;;;;;;;10.50;9.50;;;2.20;71.00;;;;;;4977062;28;20189;-88
2021/05/03 02:59:40;;;;;;;10.70;8.70;;;2.30;69.10;;;;;;4959623;28;20186;-88
2021/05/03 03:02:05;;;;;;;9.57;8.73;;;2.10;68.90;;;;;;4958777;28;20181;-88
2021/05/03 03:04:31;;;;;;;9.83;9.03;;;2.30;67.90;;;;;;4958878;28;20529;-88
2021/05/03 03:06:56;;;;;;;10.00;9.13;;;2.30;68.30;;;;;;4958615;28;20579;-87
2021/05/03 03:09:22;;;;;;;10.93;9.63;;;2.20;67.60;;;;;;4959057;28;20544;-88
2021/05/03 03:11:48;;;;;;;8.67;8.03;;;1.80;68.00;;;;;;4958447;28;20209;-89
2021/05/03 03:14:15;;;;;;;11.52;10.38;;;2.70;71.60;;;;;;4958470;28;20766;-88
2021/05/03 03:16:41;;;;;;;14.02;10.57;;;1.10;68.40;;;;;;4958619;28;20188;-87
2021/05/03 03:19:06;;;;;;;13.47;10.70;;;1.40;70.00;;;;;;4958765;28;20170;-87
2021/05/03 03:21:32;;;;;;;12.60;10.10;;;1.40;69.80;;;;;;4958610;28;20445;-87
2021/05/03 03:23:58;;;;;;;11.47;10.13;;;1.80;71.30;;;;;;4976061;28;20220;-88
2021/05/03 03:26:24;;;;;;;11.80;10.80;;;2.00;70.50;;;;;;4959671;28;20178;-88
2021/05/03 03:28:50;;;;;;;13.95;11.07;;;2.00;70.20;;;;;;4976853;28;20163;-88
2021/05/03 03:31:15;;;;;;;11.57;10.20;;;2.00;70.40;;;;;;4958777;28;20170;-89
2021/05/03 03:33:41;;;;;;;11.80;10.63;;;2.10;70.80;;;;;;4958953;28;20752;-88
2021/05/03 03:36:07;;;;;;;13.47;11.20;;;2.00;71.00;;;;;;4976832;28;20228;-88
2021/05/03 03:38:33;;;;;;;10.83;9.83;;;2.00;70.90;;;;;;4959250;28;20285;-88
2021/05/03 03:40:59;;;;;;;13.73;11.88;;;2.00;71.20;;;;;;4975692;28;20336;-88
2021/05/03 03:43:25;;;;;;;13.97;12.57;;;2.00;71.70;;;;;;4976335;28;20201;-88
2021/05/03 03:45:50;;;;;;;13.63;11.93;;;2.10;71.90;;;;;;4958696;28;20264;-87
2021/05/03 03:48:16;;;;;;;12.83;10.97;;;;;;;;;;4975837;28;20636;-88
2021/05/03 03:50:42;;;;;;;14.13;11.90;;;2.10;70.90;;;;;;4959445;28;20174;-87
2021/05/03 03:53:08;;;;;;;18.90;12.40;;;;;;;;;;4958519;28;20454;-87
2021/05/03 03:55:34;;;;;;;15.23;12.88;;;2.10;71.00;;;;;;4976802;28;20213;-88
2021/05/03 03:58:00;;;;;;;12.60;11.40;;;1.80;71.80;;;;;;4958975;28;20515;-88
2021/05/03 04:00:25;;;;;;;14.70;12.07;;;2.00;72.60;;;;;;4958691;28;20303;-89
2021/05/03 04:02:52;;;;;;;14.73;12.20;;;2.20;72.30;;;;;;4975691;28;20166;-89
2021/05/03 04:05:28;;;;;;;11.75;10.57;;;2.30;71.80;;;;;;4959100;28;20590;-88
2021/05/03 04:08:03;;;;;;;13.13;11.77;;;2.30;71.20;;;;;;4976235;28;20598;-89
2021/05/03 04:21:11;;;;;;;13.93;11.32;;;2.10;70.80;;;;;;4975820;28;20189;-88
2021/05/03 04:26:12;;;;;;;13.50;10.80;;;2.10;71.10;;;;;;4977328;28;20181;-87
2021/05/03 04:28:38;;;;;;;11.77;10.55;;;2.20;71.00;;;;;;4959484;28;20198;-88
2021/05/03 04:31:04;;;;;;;11.37;10.37;;;2.20;71.70;;;;;;4977795;28;20581;-89
2021/05/03 04:33:30;;;;;;;14.70;9.93;;;2.20;71.60;;;;;;4980402;28;20561;-88
2021/05/03 04:35:55;;;;;;;12.20;10.20;;;2.10;71.70;;;;;;4985115;28;20436;-87
2021/05/03 04:38:21;;;;;;;12.90;10.50;;;2.20;70.00;;;;;;4983181;28;20211;-87
2021/05/03 04:40:47;;;;;;;10.57;9.77;;;;;;;;;;4981859;28;20237;-89
2021/05/03 04:43:16;;;;;;;12.40;11.25;;;2.30;68.60;;;;;;4982287;28;20154;-89
2021/05/03 04:45:41;;;;;;;14.32;11.38;;;2.30;69.40;;;;;;4973105;28;20193;-89
2021/05/03 04:48:07;;;;;;;11.23;10.13;;;2.30;70.00;;;;;;4962928;28;20185;-88
2021/05/03 04:50:33;;;;;;;10.30;9.40;;;2.30;69.90;;;;;;4963308;28;20174;-88
2021/05/03 04:52:59;;;;;;;10.87;9.90;;;2.10;69.70;;;;;;4962847;28;20217;-88
2021/05/03 04:55:25;;;;;;;9.70;8.80;;;2.30;70.40;;;;;;4963510;28;20544;-89
2021/05/03 04:57:50;;;;;;;10.57;9.77;;;2.50;69.20;;;;;;4962866;28;20200;-89
2021/05/03 05:00:20;;;;;;;9.53;8.73;;;2.60;69.70;;;;;;4957622;28;20183;-89
2021/05/03 05:02:46;;;;;;;9.73;8.95;;;2.80;69.70;;;;;;4967090;28;20269;-88
2021/05/03 05:05:12;;;;;;;10.27;9.37;;;3.00;68.90;;;;;;4959470;29;20268;-89
2021/05/03 05:07:39;;;;;;;11.50;9.35;;;3.20;67.90;;;;;;4959528;29;20167;-88
2021/05/03 05:10:05;;;;;;;11.23;10.15;;;3.20;67.60;;;;;;4942019;29;20178;-87
2021/05/03 05:12:32;;;;;;;10.30;9.23;;;3.40;68.20;;;;;;4959195;29;20168;-87
2021/05/03 05:14:57;;;;;;;14.90;9.85;;;3.40;68.20;;;;;;4959674;29;20206;-88
2021/05/03 05:17:23;;;;;;;10.27;9.30;;;3.20;68.40;;;;;;4959500;29;20615;-87
2021/05/03 05:19:49;;;;;;;14.00;9.57;;;3.60;69.10;;;;;;4959428;29;20588;-88
2021/05/03 05:22:15;;;;;;;9.80;9.00;;;4.00;69.00;;;;;;4962808;28;20175;-90
2021/05/03 05:24:42;;;;;;;10.15;9.35;;;4.30;66.50;;;;;;4943345;29;20167;-89
2021/05/03 05:27:08;;;;;;;11.63;9.07;;;5.00;64.40;;;;;;4943169;29;20178;-90
2021/05/03 05:29:33;;;;;;;7.73;7.23;;;5.00;61.10;;;;;;4943663;29;20461;-86
2021/05/03 05:31:59;;;;;;;13.57;9.60;;;6.20;59.80;;;;;;4958525;29;20422;-88
2021/05/03 05:34:25;;;;;;;9.60;8.43;;;6.80;58.50;;;;;;4942960;29;20218;-88
2021/05/03 05:36:50;;;;;;;10.03;9.07;;;7.20;57.20;;;;;;4966996;28;20568;-87
2021/05/03 05:39:16;;;;;;;9.27;8.37;;;7.10;56.50;;;;;;4970060;28;20174;-88
2021/05/03 05:41:42;;;;;;;9.00;8.40;;;7.20;55.30;;;;;;4979709;28;20218;-88
2021/05/03 05:44:09;;;;;;;8.13;7.43;;;7.00;53.60;;;;;;4981957;28;20193;-88
2021/05/03 05:46:35;;;;;;;9.43;8.63;;;8.50;54.20;;;;;;4984164;28;20242;-88
2021/05/03 05:49:03;;;;;;;8.37;7.57;;;8.60;54.00;;;;;;4632436;28;10000077;-88
2021/05/03 05:51:29;;;;;;;12.40;8.60;;;8.80;53.80;;;;;;4956002;29;20170;-88
2021/05/03 05:53:55;;;;;;;9.00;8.13;;;8.60;53.80;;;;;;4938374;29;20933;-88
2021/05/03 05:56:21;;;;;;;9.20;8.50;;;8.50;53.70;;;;;;4955193;29;20426;-87
2021/05/03 05:58:46;;;;;;;8.23;7.73;;;8.60;53.40;;;;;;4954304;29;20179;-88
2021/05/03 06:01:12;;;;;;;7.70;7.20;;;9.30;53.20;;;;;;4955585;29;20422;-88
2021/05/03 06:03:39;;;;;;;9.13;8.37;;;8.90;52.40;;;;;;4956009;29;20221;-88
2021/05/03 06:06:05;;;;;;;8.37;7.50;;;8.50;52.00;;;;;;4938360;29;20653;-89
2021/05/03 06:08:31;;;;;;;8.10;7.30;;;8.10;52.40;;;;;;4955374;29;20410;-88
2021/05/03 06:10:56;;;;;;;7.77;7.03;;;8.90;52.80;;;;;;4955206;29;20721;-86
2021/05/03 06:13:22;;;;;;;8.27;7.57;;;8.70;52.10;;;;;;4953613;29;20175;-87
2021/05/03 06:15:47;;;;;;;8.10;7.33;;;8.90;51.90;;;;;;4938237;29;20214;-86
2021/05/03 06:18:13;;;;;;;7.60;7.00;;;9.50;51.70;;;;;;4938351;29;20210;-88
2021/05/03 06:20:39;;;;;;;6.97;6.47;;;9.60;51.30;;;;;;4955869;29;20237;-87
2021/05/03 06:23:07;;;;;;;7.20;6.70;;;9.70;51.00;;;;;;4960674;28;20174;-89
2021/05/03 06:25:34;;;;;;;6.90;6.50;;;9.90;50.20;;;;;;4958551;28;20429;-87
2021/05/03 06:28:00;;;;;;;6.67;6.17;;;10.00;49.20;;;;;;4975541;28;20476;-87
2021/05/03 06:30:26;;;;;;;8.37;7.67;;;9.80;50.70;;;;;;4957935;28;20435;-91
2021/05/03 06:32:53;;;;;;;7.80;7.30;;;9.60;51.40;;;;;;4959355;28;20422;-90
2021/05/03 06:35:20;;;;;;;7.87;7.30;;;8.20;50.50;;;;;;4957941;28;20476;-89
2021/05/03 06:37:46;;;;;;;7.70;7.10;;;12.00;52.40;;;;;;4957209;28;20417;-89
2021/05/03 06:40:13;;;;;;;7.40;6.70;;;8.30;51.20;;;;;;4973618;28;20457;-90
2021/05/03 06:42:40;;;;;;;7.90;7.30;;;9.60;52.70;;;;;;4966838;28;20421;-89
2021/05/03 06:45:07;;;;;;;7.53;7.03;;;12.20;54.40;;;;;;4959213;28;20478;-82
2021/05/03 06:47:33;;;;;;;14.63;7.73;;;9.60;51.60;;;;;;4955361;28;20533;-86
2021/05/03 06:49:59;;;;;;;7.40;6.70;;;9.20;51.60;;;;;;4954938;28;20484;-87
2021/05/03 06:52:25;;;;;;;8.13;7.33;;;9.40;51.60;;;;;;4973583;28;20418;-86
2021/05/03 06:54:50;;;;;;;10.73;9.13;;;9.10;52.00;;;;;;4971981;28;20217;-86
2021/05/03 06:57:16;;;;;;;7.77;6.67;;;9.00;51.90;;;;;;4955735;28;20759;-86
2021/05/03 06:59:43;;;;;;;8.67;6.60;;;9.10;52.00;;;;;;4956524;28;20213;-86
2021/05/03 07:02:10;;;;;;;6.60;6.20;;;9.20;51.70;;;;;;4973336;28;20409;-87
2021/05/03 07:04:36;;;;;;;6.67;6.13;;;9.10;51.80;;;;;;4957346;28;20445;-87
2021/05/03 07:07:02;;;;;;;6.53;5.93;;;9.20;51.40;;;;;;4975104;28;20484;-88
2021/05/03 07:09:28;;;;;;;6.57;5.97;;;9.40;51.10;;;;;;4957564;28;20425;-87
2021/05/03 07:11:55;;;;;;;6.90;6.37;;;9.60;50.80;;;;;;4973126;28;20178;-88
2021/05/03 07:14:21;;;;;;;8.70;6.60;;;9.90;50.40;;;;;;4974164;28;20456;-87
2021/05/03 07:16:46;;;;;;;6.80;6.23;;;10.00;49.20;;;;;;4957354;28;20429;-86
2021/05/03 07:19:12;;;;;;;7.10;6.33;;;10.50;48.30;;;;;;4974361;28;20611;-85
2021/05/03 07:21:37;;;;;;;8.10;7.30;;;10.90;47.70;;;;;;4974313;28;20225;-83
2021/05/03 07:24:04;;;;;;;8.00;7.20;;;11.50;47.10;;;;;;4974353;28;20302;-84
2021/05/03 07:26:30;;;;;;;7.13;6.63;;;12.20;45.30;;;;;;4973899;28;20624;-86
2021/05/03 07:28:55;;;;;;;6.37;6.07;;;12.60;44.40;;;;;;4973956;28;20564;-85
2021/05/03 07:31:21;;;;;;;7.57;6.97;;;12.70;44.50;;;;;;4974658;28;20178;-86
2021/05/03 07:33:47;;;;;;;6.27;5.87;;;13.20;43.30;;;;;;4957078;28;20185;-84
2021/05/03 07:36:12;;;;;;;6.70;6.30;;;13.40;42.20;;;;;;4628777;28;10000199;-84
2021/05/03 07:38:38;;;;;;;6.07;5.67;;;13.30;42.50;;;;;;4971405;28;20414;-86
2021/05/03 07:41:06;;;;;;;6.73;6.30;;;13.60;42.20;;;;;;4971666;28;20222;-85
2021/05/03 07:43:32;;;;;;;6.53;6.17;;;13.40;40.10;;;;;;4972445;28;20237;-90
2021/05/03 07:45:58;;;;;;;6.10;5.80;;;13.20;40.20;;;;;;4960356;28;21087;-90
2021/05/03 07:48:24;;;;;;;8.10;6.00;;;13.40;39.40;;;;;;4974107;28;20433;-90
2021/05/03 07:50:52;;;;;;;6.50;5.90;;;14.20;40.20;;;;;;4961877;28;20548;-88
2021/05/03 07:53:24;;;;;;;6.17;5.77;;;14.60;38.00;;;;;;4970419;28;20173;-90
2021/05/03 07:55:50;;;;;;;7.07;6.70;;;16.00;36.60;;;;;;4989393;28;20988;-87
2021/05/03 07:58:15;;;;;;;7.27;6.77;;;17.50;35.10;;;;;;4976542;28;20476;-91
2021/05/03 08:00:41;;;;;;;6.27;5.97;;;16.30;34.00;;;;;;4975266;28;20225;-88
2021/05/03 08:03:06;;;;;;;6.70;6.30;;;15.90;32.60;;;;;;4958880;28;20225;-90
2021/05/03 08:05:32;;;;;;;6.27;5.97;;;14.40;31.70;;;;;;4978755;28;20657;-89
2021/05/03 08:07:58;;;;;;;5.20;4.97;;;14.70;32.60;;;;;;4982226;28;20568;-89
2021/05/03 08:10:23;;;;;;;4.97;4.67;;;13.80;31.40;;;;;;4960068;28;20189;-89
2021/05/03 08:12:51;;;;;;;5.43;5.13;;;15.40;31.80;;;;;;4950646;29;20198;-88
2021/05/03 08:15:19;;;;;;;6.07;5.57;;;16.80;32.40;;;;;;4951426;28;20293;-84
2021/05/03 08:17:45;;;;;;;6.47;6.03;;;16.80;30.90;;;;;;4977763;28;20433;-85
2021/05/03 08:20:16;;;;;;;5.33;5.13;;;16.60;30.50;;;;;;4633013;28;9999942;-84
2021/05/03 08:22:42;;;;;;;5.70;5.40;;;17.00;30.20;;;;;;4975686;28;20540;-85
2021/05/03 08:25:09;;;;;;;6.27;5.77;;;16.70;30.50;;;;;;4957601;28;20421;-86
2021/05/03 08:27:35;;;;;;;5.37;4.73;;;16.90;29.60;;;;;;4975430;28;20424;-87
2021/05/03 08:30:02;;;;;;;6.13;5.83;;;18.30;30.00;;;;;;4975328;28;20457;-85
2021/05/03 08:32:28;;;;;;;6.90;6.40;;;17.70;29.80;;;;;;4974322;28;20440;-86
2021/05/03 08:34:53;;;;;;;7.40;6.90;;;17.90;29.40;;;;;;4957740;28;20882;-86
2021/05/03 08:37:19;;;;;;;6.37;5.93;;;18.10;29.60;;;;;;4974802;28;20239;-86
2021/05/03 08:39:45;;;;;;;5.93;5.37;;;18.50;28.90;;;;;;4974306;28;20198;-86
2021/05/03 08:42:13;;;;;;;6.73;6.30;;;18.90;29.00;;;;;;4957797;28;20630;-85
2021/05/03 08:44:39;;;;;;;7.37;6.87;;;19.10;28.50;;;;;;4977015;28;20181;-86
2021/05/03 08:47:05;;;;;;;6.93;6.50;;;19.10;28.20;;;;;;4962086;28;20421;-87
2021/05/03 08:52:23;;;;;;;6.90;6.50;;;19.30;28.60;;;;;;4968688;28;20178;-86
2021/05/03 08:54:44;;;;;;;8.30;7.80;;;19.80;28.60;;;;;;4955688;29;20230;-87
2021/05/03 08:57:12;;;;;;;7.00;6.50;;;19.70;29.20;;;;;;4967350;28;20413;-87
2021/05/03 08:59:39;;;;;;;8.17;7.40;;;18.60;29.10;;;;;;4957951;28;20508;-87
2021/05/03 09:02:07;;;;;;;7.07;6.50;;;19.60;29.40;;;;;;4945109;28;20440;-87
2021/05/03 09:04:33;;;;;;;7.13;6.53;;;18.80;28.50;;;;;;4961971;28;20425;-89
2021/05/03 09:07:05;;;;;;;7.60;7.10;;;19.60;28.60;;;;;;4978612;28;20441;-89
2021/05/03 09:09:37;;;;;;;7.17;6.57;;;18.10;28.30;;;;;;4969367;28;20417;-90
2021/05/03 09:12:23;;;;;;;6.83;6.33;;;18.20;28.60;;;;;;4960730;28;20456;-88
2021/05/03 09:14:51;;;;;;;7.10;6.70;;;20.20;28.90;;;;;;4961295;28;20488;-87
2021/05/03 09:17:28;;;;;;;6.80;6.40;;;19.40;28.50;;;;;;4968837;28;20414;-91
2021/05/03 09:19:59;;;;;;;6.77;6.33;;;19.60;27.70;;;;;;4943737;29;20949;-89
2021/05/03 09:22:30;;;;;;;7.60;6.90;;;19.10;27.40;;;;;;4960209;28;20411;-89
2021/05/03 09:25:18;;;;;;;6.33;6.00;;;19.50;27.50;;;;;;4971847;28;20432;-87
2021/05/03 09:27:48;;;;;;;12.50;6.20;;;19.30;27.20;;;;;;4977658;28;20417;-88
2021/05/03 09:30:35;;;;;;;6.70;6.30;;;18.90;27.20;;;;;;4962850;28;20968;-88
2021/05/03 09:33:38;;;;;;;8.20;6.50;;;18.60;27.60;;;;;;4958423;29;20403;-85
2021/05/03 09:36:04;;;;;;;6.47;6.07;;;18.90;27.70;;;;;;4917607;29;20469;-86
2021/05/03 09:38:36;;;;;;;5.87;5.47;;;18.80;27.70;;;;;;4941193;29;20426;-88
2021/05/03 09:41:10;;;;;;;6.50;6.00;;;19.10;27.60;;;;;;4959690;29;20488;-89
2021/05/03 09:43:37;;;;;;;7.53;6.93;;;19.50;27.20;;;;;;4941755;29;20450;-88
2021/05/03 09:46:27;;;;;;;6.80;6.30;;;19.40;26.90;;;;;;4972113;28;20418;-88
2021/05/03 09:48:57;;;;;;;8.60;5.97;;;18.20;26.50;;;;;;4978836;28;20764;-87
2021/05/03 09:51:29;;;;;;;6.97;6.57;;;19.30;27.20;;;;;;4961605;28;20428;-86
2021/05/03 09:54:07;;;;;;;6.63;6.20;;;17.10;26.60;;;;;;4979251;28;20409;-87
2021/05/03 09:56:45;;;;;;;6.80;6.40;;;18.10;27.40;;;;;;4979315;28;20912;-87
2021/05/03 09:59:33;;;;;;;7.43;6.93;;;18.50;27.20;;;;;;4979256;28;21067;-87
2021/05/03 10:02:25;;;;;;;7.03;6.43;;;17.80;27.10;;;;;;4962348;28;20428;-87
2021/05/03 10:07:33;;;;;;;7.13;6.77;;;17.90;27.40;;;;;;4978027;28;20912;-89
2021/05/03 10:12:26;;;;;;;7.37;5.30;;;19.30;26.30;;;;;;4975133;28;20903;-88
2021/05/03 10:14:53;;;;;;;6.97;6.63;;;21.30;26.30;;;;;;4956829;28;20480;-89
2021/05/03 10:17:20;;;;;;;7.80;7.30;;;20.50;25.40;;;;;;4974792;28;20512;-88
2021/05/03 10:19:48;;;;;;;7.90;7.50;;;20.20;25.00;;;;;;4975248;28;20430;-87
2021/05/03 10:22:18;;;;;;;7.70;7.30;;;20.50;25.60;;;;;;4956424;28;20426;-86
2021/05/03 10:24:46;;;;;;;8.00;7.50;;;19.30;25.10;;;;;;4956232;28;20504;-87
2021/05/03 10:27:13;;;;;;;7.40;6.80;;;19.90;26.30;;;;;;4968032;28;20469;-88
2021/05/03 10:29:42;;;;;;;7.20;6.80;;;18.60;26.80;;;;;;4956232;28;20433;-90
2021/05/03 10:32:13;;;;;;;6.50;6.20;;;19.50;26.40;;;;;;4957685;28;20936;-89
2021/05/03 10:34:44;;;;;;;6.93;6.63;;;20.90;26.70;;;;;;4954829;28;20478;-83
2021/05/03 10:37:44;;;;;;;7.63;7.13;;;20.30;25.80;;;;;;4954737;29;20422;-82
2021/05/03 10:40:13;;;;;;;7.80;7.17;;;19.30;26.30;;;;;;4952367;29;20871;-82
2021/05/03 10:43:06;;;;;;;7.13;6.70;;;18.90;26.50;;;;;;4955542;29;20442;-81
2021/05/03 10:51:32;;;;;;;8.10;7.50;;;18.40;26.60;;;;;;4975043;28;20832;-90
2021/05/03 10:54:22;;;;;;;7.33;6.83;;;19.20;28.10;;;;;;4984932;28;20420;-88
2021/05/03 10:56:47;;;;;;;8.47;7.83;;;17.50;27.90;;;;;;4978677;28;20457;-89
2021/05/03 10:59:14;;;;;;;7.07;6.77;;;18.10;27.70;;;;;;4616862;28;10000571;-89
2021/05/03 11:01:52;;;;;;;7.80;7.17;;;17.50;27.40;;;;;;4968184;28;20178;-89
2021/05/03 11:04:31;;;;;;;6.90;6.50;;;18.00;27.00;;;;;;4959215;28;20493;-86
2021/05/03 11:06:57;;;;;;;6.97;6.43;;;18.30;26.70;;;;;;4961366;28;20428;-87
2021/05/03 11:09:31;;;;;;;6.40;6.10;;;17.90;26.30;;;;;;4980418;28;20410;-88
2021/05/03 11:12:06;;;;;;;7.93;7.53;;;18.40;26.60;;;;;;4964499;28;20204;-91
2021/05/03 11:14:35;;;;;;;7.73;7.33;;;18.90;26.30;;;;;;4963292;28;20543;-87
2021/05/03 11:17:08;;;;;;;6.40;6.10;;;17.70;26.30;;;;;;4975181;28;20417;-88
2021/05/03 11:22:14;;;;;;;7.33;6.80;;;17.20;26.50;;;;;;4982123;28;20410;-89
2021/05/03 11:24:52;;;;;;;9.57;8.33;;;17.50;27.00;;;;;;4964567;28;20449;-90
2021/05/03 11:27:27;;;;;;;7.47;7.07;;;17.30;26.80;;;;;;4964975;28;20433;-88
2021/05/03 11:32:31;;;;;;;7.77;7.33;;;16.90;26.90;;;;;;4971394;28;20987;-81
2021/05/03 11:35:11;;;;;;;8.10;7.70;;;17.30;27.30;;;;;;4972377;28;20472;-81
2021/05/03 11:37:55;;;;;;;9.07;8.47;;;17.60;26.90;;;;;;4973815;28;20432;-82
2021/05/03 11:45:16;;;;;;;8.80;8.23;;;17.70;27.40;;;;;;4974339;28;20980;-81
2021/05/03 11:47:44;;;;;;;8.43;7.93;;;18.10;27.40;;;;;;4973403;28;20261;-81
2021/05/03 11:50:10;;;;;;;10.90;8.93;;;17.90;26.60;;;;;;4973585;28;20568;-81
2021/05/03 11:52:38;;;;;;;8.97;8.27;;;17.70;27.20;;;;;;4973606;28;20517;-81
2021/05/03 11:55:08;;;;;;;10.87;10.00;;;17.20;27.70;;;;;;4973754;28;20457;-80
2021/05/03 11:57:38;;;;;;;8.97;8.37;;;17.30;28.10;;;;;;4974287;28;20492;-80
2021/05/03 12:00:06;;;;;;;8.77;8.17;;;17.20;27.80;;;;;;4973589;28;20425;-80
2021/05/03 12:02:31;;;;;;;8.93;8.27;;;17.40;27.90;;;;;;4956479;28;20417;-82
2021/05/03 12:04:57;;;;;;;11.13;10.33;;;17.40;27.90;;;;;;4974651;28;20421;-88
2021/05/03 12:07:29;;;;;;;9.23;8.60;;;17.40;27.40;;;;;;4980525;28;20201;-90
2021/05/03 12:10:20;;;;;;;9.73;9.13;;;17.10;27.80;;;;;;4982179;28;20414;-89
2021/05/03 12:12:48;;;;;;;9.50;8.70;;;16.80;28.50;;;;;;4956120;28;20525;-90
2021/05/03 12:15:22;;;;;;;10.70;9.90;;;16.40;28.70;;;;;;4959478;29;20606;-89
2021/05/03 12:17:49;;;;;;;8.80;8.10;;;16.10;28.60;;;;;;4955832;28;20421;-93
2021/05/03 12:20:19;;;;;;;8.63;7.93;;;16.00;28.90;;;;;;4970123;28;20437;-89
2021/05/03 12:23:08;;;;;;;9.30;8.70;;;15.80;29.10;;;;;;4974601;28;20501;-89
2021/05/03 12:26:07;;;;;;;8.13;7.53;;;15.60;29.20;;;;;;4987975;28;20445;-90
2021/05/03 12:28:36;;;;;;;8.80;8.20;;;15.80;29.10;;;;;;5179635;23;20481;-90
2021/05/03 12:31:40;;;;;;;8.70;8.00;;;17.10;31.30;;;;;;4974933;28;20425;-90
2021/05/03 12:37:44;;;;;;;7.40;7.00;;;16.10;28.90;;;;;;4992178;28;20421;-89
2021/05/03 12:40:11;;;;;;;9.20;8.60;;;16.70;28.70;;;;;;4993132;28;20451;-89
2021/05/03 12:42:47;;;;;;;9.00;8.23;;;15.60;28.20;;;;;;4992840;28;20390;-87
2021/05/03 12:45:20;;;;;;;9.80;7.47;;;15.40;28.40;;;;;;4580285;22;20686;-88
2021/05/03 12:57:21;;;;;;;10.53;7.87;;;16.30;30.30;;;;;;4989988;28;20417;-88
2021/05/03 12:59:57;;;;;;;8.30;7.90;;;14.80;29.50;;;;;;4989650;28;20424;-88
2021/05/03 13:02:35;;;;;;;8.70;8.20;;;14.80;29.90;;;;;;4981582;28;20413;-88
2021/05/03 13:06:11;;;;;;;9.60;8.93;;;14.80;30.00;;;;;;4959958;28;20797;-88
2021/05/03 13:08:27;;;;;;;9.37;8.67;;;14.90;29.70;;;;;;4950497;29;20521;-84
2021/05/03 13:28:09;;;;;;;7.40;7.00;;;16.20;27.80;;;;;;4968993;29;20445;-90
2021/05/03 13:30:37;;;;;;;8.43;7.93;;;16.10;28.20;;;;;;4967786;28;20457;-90
2021/05/03 13:33:04;;;;;;;10.30;9.33;;;15.80;28.20;;;;;;4965031;29;20488;-89
2021/05/03 13:35:52;;;;;;;8.90;8.40;;;15.50;30.10;;;;;;4965058;29;20469;-89
2021/05/03 13:38:18;;;;;;;8.47;7.97;;;15.50;29.60;;;;;;4969299;28;20422;-88
2021/05/03 13:40:46;;;;;;;7.87;7.33;;;16.70;30.50;;;;;;4968690;28;20422;-89
2021/05/03 13:43:15;;;;;;;9.57;8.20;;;16.60;29.60;;;;;;4968751;28;20199;-89
2021/05/03 13:45:41;;;;;;;7.70;7.20;;;17.70;29.60;;;;;;4968438;28;21022;-89
2021/05/03 13:48:10;;;;;;;7.67;7.30;;;16.70;29.00;;;;;;4965684;28;20425;-90
2021/05/03 13:50:35;;;;;;;6.50;6.10;;;16.50;27.50;;;;;;4985032;28;20216;-88
2021/05/03 13:53:01;;;;;;;6.93;6.53;;;18.40;29.30;;;;;;4987647;28;20472;-88
2021/05/03 13:55:26;;;;;;;6.90;6.60;;;18.40;29.00;;;;;;4989291;28;20377;-89
2021/05/03 13:57:56;;;;;;;6.67;6.17;;;18.60;29.20;;;;;;4971987;28;20180;-88
2021/05/03 14:00:22;;;;;;;8.03;7.53;;;18.10;28.40;;;;;;4968810;28;20182;-89
2021/05/03 14:02:47;;;;;;;7.43;7.07;;;16.60;27.80;;;;;;4964526;28;20418;-89
2021/05/03 14:05:13;;;;;;;8.47;7.70;;;16.60;28.00;;;;;;4966174;28;20425;-89